createdAt,value
2022-12-19T00:01:56.586Z,31.30
2022-12-19T00:04:24.499Z,31.50
2022-12-19T00:06:52.449Z,31.40
2022-12-19T00:09:20.372Z,31.40
2022-12-19T00:11:48.235Z,31.40
2022-12-19T00:14:15.970Z,31.30
2022-12-19T00:16:43.924Z,31.90
2022-12-19T00:19:12.023Z,31.30
2022-12-19T00:21:39.845Z,31.50
2022-12-19T00:24:14.536Z,31.50
2022-12-19T00:26:49.355Z,31.40
2022-12-19T00:29:17.122Z,31.50
2022-12-19T00:31:45.000Z,31.50
2022-12-19T00:34:12.990Z,31.60
2022-12-19T00:36:40.786Z,31.60
2022-12-19T00:39:10.341Z,31.70
2022-12-19T00:41:40.077Z,31.70
2022-12-19T00:44:09.724Z,31.80
2022-12-19T00:46:37.522Z,31.80
2022-12-19T00:49:05.337Z,31.70
2022-12-19T00:51:33.111Z,31.80
2022-12-19T00:54:00.985Z,31.80
2022-12-19T00:56:30.005Z,31.80
2022-12-19T00:58:57.857Z,31.90
2022-12-19T01:01:25.823Z,32.00
2022-12-19T01:04:26.548Z,31.90
2022-12-19T01:06:41.574Z,32.00
2022-12-19T01:09:09.493Z,31.90
2022-12-19T01:11:54.614Z,32.10
2022-12-19T01:14:23.453Z,32.00
2022-12-19T01:16:51.254Z,32.20
2022-12-19T01:19:19.051Z,32.30
2022-12-19T01:21:46.763Z,32.30
2022-12-19T01:24:15.827Z,32.30
2022-12-19T01:26:47.071Z,32.30
2022-12-19T01:29:14.792Z,32.40
2022-12-19T01:31:42.621Z,32.50
2022-12-19T01:34:10.515Z,32.40
2022-12-19T01:36:39.878Z,32.40
2022-12-19T01:39:07.978Z,32.50
2022-12-19T01:41:35.819Z,32.50
2022-12-19T01:44:03.597Z,32.50
2022-12-19T01:46:31.470Z,32.40
2022-12-19T01:48:59.203Z,32.50
2022-12-19T01:51:26.922Z,32.50
2022-12-19T01:53:54.636Z,32.50
2022-12-19T01:56:22.385Z,32.60
2022-12-19T02:39:26.205Z,33.10
2022-12-19T02:41:55.559Z,33.50
2022-12-19T02:44:23.538Z,33.60
2022-12-19T02:46:51.333Z,33.50
2022-12-19T02:49:26.006Z,33.60
2022-12-19T02:51:59.029Z,33.80
2022-12-19T02:54:27.072Z,33.90
2022-12-19T02:56:54.938Z,33.80
2022-12-19T02:59:22.781Z,34.10
2022-12-19T03:01:51.085Z,34.10
2022-12-19T03:04:19.158Z,34.30
2022-12-19T03:06:46.980Z,34.30
2022-12-19T03:09:15.755Z,34.40
2022-12-19T03:11:43.602Z,34.30
2022-12-19T03:14:11.368Z,34.40
2022-12-19T03:16:39.224Z,34.70
2022-12-19T03:19:07.206Z,34.50
2022-12-19T03:21:34.977Z,34.70
2022-12-19T03:24:02.860Z,34.70
2022-12-19T03:26:30.671Z,34.80
2022-12-19T03:28:58.456Z,34.80
2022-12-19T03:31:26.290Z,34.80
2022-12-19T03:33:54.090Z,34.70
2022-12-19T03:36:21.891Z,34.70
2022-12-19T03:38:49.864Z,34.70
2022-12-19T03:41:37.687Z,34.80
2022-12-19T03:44:04.493Z,34.70
2022-12-19T03:46:32.407Z,34.70
2022-12-19T03:49:00.177Z,34.70
2022-12-19T03:51:28.426Z,34.80
2022-12-19T03:53:56.407Z,34.60
2022-12-19T03:56:24.166Z,34.70
2022-12-19T03:58:51.910Z,35.00
2022-12-19T04:01:21.730Z,35.10
2022-12-19T04:03:50.591Z,35.00
2022-12-19T04:06:18.453Z,34.90
2022-12-19T04:08:46.506Z,35.20
2022-12-19T04:11:14.491Z,35.20
2022-12-19T04:13:42.271Z,35.20
2022-12-19T04:16:10.221Z,35.50
2022-12-19T04:18:38.042Z,35.60
2022-12-19T04:21:05.881Z,35.80
2022-12-19T04:23:33.672Z,36.00
2022-12-19T04:26:02.304Z,35.90
2022-12-19T04:28:30.090Z,36.10
2022-12-19T04:30:57.884Z,36.00
2022-12-19T04:33:25.839Z,36.20
2022-12-19T04:35:53.667Z,36.00
2022-12-19T04:38:24.228Z,36.00
2022-12-19T04:40:52.182Z,35.70
2022-12-19T04:43:20.062Z,36.10
2022-12-19T04:45:50.551Z,36.20
2022-12-19T04:48:22.068Z,36.30
2022-12-19T04:50:49.851Z,36.30
2022-12-19T04:53:17.658Z,36.40
2022-12-19T04:55:45.478Z,36.20
2022-12-19T04:58:16.343Z,36.20
2022-12-19T05:00:47.095Z,36.20
2022-12-19T05:03:14.973Z,36.10
2022-12-19T05:05:42.814Z,35.80
2022-12-19T05:08:11.208Z,36.10
2022-12-19T05:10:39.169Z,36.10
2022-12-19T05:13:07.682Z,36.00
2022-12-19T05:15:35.691Z,36.00
2022-12-19T05:18:04.200Z,36.10
2022-12-19T05:20:32.065Z,36.10
2022-12-19T05:23:03.208Z,36.10
2022-12-19T05:25:35.273Z,36.20
2022-12-19T05:28:03.072Z,36.00
2022-12-19T05:30:31.646Z,36.20
2022-12-19T05:32:59.396Z,36.20
2022-12-19T05:35:27.299Z,36.40
2022-12-19T05:37:55.197Z,36.40
2022-12-19T05:40:23.027Z,36.10
2022-12-19T05:42:50.905Z,36.20
2022-12-19T05:45:18.707Z,35.90
2022-12-19T05:47:46.724Z,36.30
2022-12-19T05:50:14.564Z,36.20
2022-12-19T05:52:42.413Z,35.90
2022-12-19T05:55:10.257Z,36.00
2022-12-19T05:57:38.348Z,35.90
2022-12-19T06:00:08.557Z,36.00
2022-12-19T06:02:36.419Z,35.80
2022-12-19T06:05:04.343Z,36.00
2022-12-19T06:07:32.172Z,35.90
2022-12-19T06:10:00.164Z,35.80
2022-12-19T06:12:28.003Z,35.60
2022-12-19T06:14:55.814Z,35.50
2022-12-19T06:17:23.605Z,35.80
2022-12-19T06:19:51.383Z,35.70
2022-12-19T06:22:19.178Z,35.70
2022-12-19T06:24:47.022Z,35.60
2022-12-19T06:27:14.806Z,35.50
2022-12-19T06:29:42.565Z,35.40
2022-12-19T06:32:10.391Z,35.60
2022-12-19T06:37:26.296Z,35.70
2022-12-19T06:39:54.105Z,35.50
2022-12-19T06:42:23.982Z,35.60
2022-12-19T06:44:51.859Z,35.20
2022-12-19T06:47:19.635Z,35.70
2022-12-19T06:49:50.400Z,35.50
2022-12-19T06:52:18.208Z,35.30
2022-12-19T06:54:46.296Z,35.80
2022-12-19T06:57:14.030Z,35.80
2022-12-19T06:59:41.782Z,35.90
2022-12-19T07:02:09.662Z,35.90
2022-12-19T07:04:37.540Z,35.90
2022-12-19T07:07:05.331Z,36.00
2022-12-19T07:09:33.189Z,36.10
2022-12-19T07:12:01.069Z,36.00
2022-12-19T07:14:28.836Z,36.00
2022-12-19T07:16:56.665Z,36.00
2022-12-19T07:19:24.480Z,35.90
2022-12-19T07:21:52.258Z,35.90
2022-12-19T07:24:20.006Z,35.90
2022-12-19T07:26:47.809Z,36.00
2022-12-19T07:29:15.740Z,36.10
2022-12-19T07:31:43.565Z,35.90
2022-12-19T07:34:11.429Z,36.10
2022-12-19T07:36:39.285Z,36.10
2022-12-19T07:39:07.088Z,35.90
2022-12-19T07:41:34.887Z,36.10
2022-12-19T07:44:02.771Z,36.10
2022-12-19T07:46:31.175Z,36.00
2022-12-19T07:49:02.122Z,36.10
2022-12-19T07:51:30.214Z,35.50
2022-12-19T07:53:58.792Z,36.20
2022-12-19T07:56:27.612Z,36.20
2022-12-19T07:58:55.496Z,36.10
2022-12-19T08:01:23.440Z,36.20
2022-12-19T08:03:51.274Z,36.30
2022-12-19T08:06:19.067Z,36.20
2022-12-19T08:08:46.876Z,36.10
2022-12-19T08:11:15.180Z,36.30
2022-12-19T08:13:46.425Z,36.10
2022-12-19T08:16:14.727Z,36.20
2022-12-19T08:18:42.622Z,36.10
2022-12-19T08:21:10.419Z,36.10
2022-12-19T08:23:38.804Z,36.10
2022-12-19T08:26:06.626Z,36.10
2022-12-19T08:28:34.471Z,36.20
2022-12-19T08:31:02.306Z,35.90
2022-12-19T08:33:30.251Z,36.00
2022-12-19T08:35:58.108Z,36.10
2022-12-19T08:38:25.874Z,36.10
2022-12-19T08:40:54.046Z,36.30
2022-12-19T08:43:21.919Z,36.10
2022-12-19T08:45:49.761Z,36.30
2022-12-19T08:48:17.601Z,36.30
2022-12-19T08:50:45.461Z,36.30
2022-12-19T08:53:13.297Z,36.30
2022-12-19T08:55:41.152Z,36.30
2022-12-19T08:58:09.009Z,35.90
2022-12-19T09:00:36.793Z,36.10
2022-12-19T09:03:04.751Z,36.30
2022-12-19T09:06:03.098Z,36.10
2022-12-19T09:08:21.855Z,36.20
2022-12-19T09:10:49.622Z,36.30
2022-12-19T09:13:17.546Z,36.20
2022-12-19T09:15:45.404Z,36.30
2022-12-19T09:18:13.214Z,36.10
2022-12-19T09:20:41.019Z,36.30
2022-12-19T09:23:08.836Z,36.30
2022-12-19T09:25:36.885Z,36.10
2022-12-19T09:30:52.607Z,36.00
2022-12-19T09:33:20.490Z,36.10
2022-12-19T09:35:48.255Z,36.10
2022-12-19T09:38:16.029Z,36.30
2022-12-19T09:40:44.178Z,36.20
2022-12-19T09:43:11.957Z,36.30
2022-12-19T09:45:40.482Z,36.20
2022-12-19T09:48:08.309Z,36.30
2022-12-19T09:50:36.955Z,36.10
2022-12-19T09:53:04.917Z,36.30
2022-12-19T09:55:32.666Z,36.30
2022-12-19T09:58:04.767Z,36.30
2022-12-19T10:00:33.874Z,36.40
2022-12-19T10:03:01.831Z,36.30
2022-12-19T10:05:37.630Z,36.30
2022-12-19T10:08:17.853Z,36.40
2022-12-19T10:12:37.903Z,36.40
2022-12-19T10:13:35.059Z,36.50
2022-12-19T10:16:03.416Z,36.50
2022-12-19T10:18:31.208Z,36.50
2022-12-19T10:20:59.055Z,36.60
2022-12-19T10:23:29.352Z,36.60
2022-12-19T10:25:57.334Z,36.60
2022-12-19T10:28:25.183Z,36.50
2022-12-19T10:30:53.064Z,36.80
2022-12-19T10:33:21.200Z,36.60
2022-12-19T10:35:49.848Z,36.50
2022-12-19T10:38:19.160Z,36.60
2022-12-19T10:40:46.984Z,36.60
2022-12-19T10:43:20.471Z,36.60
2022-12-19T10:45:53.596Z,36.50
2022-12-19T10:48:22.533Z,36.60
2022-12-19T10:50:58.843Z,36.70
2022-12-19T10:53:34.171Z,36.60
2022-12-19T10:56:02.004Z,36.70
2022-12-19T10:58:30.460Z,36.50
2022-12-19T11:00:58.408Z,36.60
2022-12-19T11:03:26.336Z,36.50
2022-12-19T11:05:57.766Z,36.60
2022-12-19T11:08:26.462Z,36.60
2022-12-19T11:12:24.591Z,36.50
2022-12-19T11:17:32.312Z,36.80
2022-12-19T11:21:34.973Z,36.60
2022-12-19T11:29:18.090Z,36.60
2022-12-19T11:29:33.380Z,36.70
2022-12-19T11:30:35.209Z,36.70
2022-12-19T11:30:46.599Z,36.70
2022-12-19T11:33:17.934Z,36.70
2022-12-19T11:35:45.869Z,36.80
2022-12-19T11:38:13.696Z,36.70
2022-12-19T11:40:48.468Z,36.70
2022-12-19T11:46:05.683Z,36.80
2022-12-19T11:48:33.609Z,36.90
2022-12-19T11:51:01.427Z,36.80
2022-12-19T11:53:30.838Z,36.70
2022-12-19T11:56:00.118Z,36.70
2022-12-19T11:58:28.618Z,36.80
2022-12-19T12:00:56.395Z,36.80
2022-12-19T12:03:24.313Z,36.60
2022-12-19T12:05:52.158Z,36.70
2022-12-19T12:11:12.992Z,36.80
2022-12-19T12:14:33.005Z,36.60
2022-12-19T12:23:45.240Z,36.80
2022-12-19T12:25:09.737Z,36.90
2022-12-19T12:31:07.990Z,36.80
2022-12-19T12:31:23.146Z,37.00
2022-12-19T12:31:42.939Z,37.10
2022-12-19T12:31:48.345Z,37.00
2022-12-19T12:31:52.224Z,37.00
2022-12-19T12:35:54.023Z,37.00
2022-12-19T12:37:52.455Z,37.70
2022-12-19T12:39:05.655Z,37.10
2022-12-19T12:41:56.241Z,37.10
2022-12-19T12:44:32.754Z,37.00
2022-12-19T12:47:01.242Z,37.00
2022-12-19T12:49:29.690Z,37.00
2022-12-19T12:51:57.471Z,37.00
2022-12-19T12:54:25.319Z,37.00
2022-12-19T12:56:55.366Z,37.00
2022-12-19T12:59:23.306Z,37.00
2022-12-19T13:01:51.150Z,37.10
2022-12-19T13:04:19.120Z,37.60
2022-12-19T13:06:46.916Z,37.00
2022-12-19T13:09:14.760Z,37.10
2022-12-19T13:11:59.933Z,36.90
2022-12-19T13:14:27.763Z,36.90
2022-12-19T13:16:55.619Z,37.00
2022-12-19T13:19:27.826Z,37.10
2022-12-19T13:21:56.407Z,37.00
2022-12-19T13:24:24.528Z,37.60
2022-12-19T13:26:52.540Z,37.10
2022-12-19T13:29:20.316Z,37.10
2022-12-19T13:31:48.160Z,37.00
2022-12-19T13:34:15.950Z,37.20
2022-12-19T13:39:49.683Z,37.10
2022-12-19T13:39:56.402Z,37.10
2022-12-19T13:42:36.847Z,37.10
2022-12-19T13:45:05.821Z,37.00
2022-12-19T13:47:33.589Z,37.20
2022-12-19T13:50:01.389Z,37.20
2022-12-19T13:52:29.202Z,37.20
2022-12-19T13:54:56.998Z,37.20
2022-12-19T13:57:24.776Z,37.10
2022-12-19T13:59:59.314Z,37.30
2022-12-19T14:02:29.095Z,37.20
2022-12-19T14:04:57.044Z,37.00
2022-12-19T14:07:34.845Z,37.10
2022-12-19T14:11:37.956Z,37.20
2022-12-19T14:13:36.256Z,37.20
2022-12-19T14:15:57.643Z,37.10
2022-12-19T14:18:42.589Z,37.30
2022-12-19T14:22:05.119Z,37.40
2022-12-19T14:24:01.080Z,37.50
2022-12-19T14:28:26.304Z,37.20
2022-12-19T14:29:16.616Z,37.40
2022-12-19T14:32:15.136Z,37.40
2022-12-19T14:36:04.970Z,38.00
2022-12-19T14:38:54.431Z,37.30
2022-12-19T14:40:19.740Z,37.50
2022-12-19T14:43:59.245Z,37.50
2022-12-19T14:52:08.236Z,39.30
2022-12-19T14:52:34.730Z,37.60
2022-12-19T14:54:28.080Z,30.50
2022-12-19T14:57:04.757Z,17.80
2022-12-19T14:59:33.925Z,15.40
2022-12-19T15:02:01.825Z,14.20
2022-12-19T15:04:51.025Z,13.50
2022-12-19T15:07:17.461Z,13.00
2022-12-19T15:11:05.011Z,12.60
2022-12-19T15:14:51.987Z,12.40
2022-12-19T15:15:38.728Z,12.20
2022-12-19T15:18:06.669Z,12.20
2022-12-19T15:20:34.547Z,12.00
2022-12-19T15:23:04.191Z,11.90
2022-12-19T15:28:20.344Z,11.90
2022-12-19T15:30:48.100Z,12.10
2022-12-19T15:33:15.929Z,12.40
2022-12-19T15:35:43.702Z,12.90
2022-12-19T15:38:11.599Z,13.30
2022-12-19T15:40:39.328Z,13.90
2022-12-19T15:43:07.149Z,14.60
2022-12-19T15:45:34.902Z,15.20
2022-12-19T15:48:02.744Z,15.90
2022-12-19T15:50:32.257Z,16.60
2022-12-19T15:53:00.125Z,17.20
2022-12-19T15:55:28.023Z,17.80
2022-12-19T15:57:55.830Z,18.60
2022-12-19T16:00:24.356Z,19.20
2022-12-19T16:05:39.946Z,20.50
2022-12-19T16:08:07.733Z,21.30
2022-12-19T16:10:35.556Z,21.80
2022-12-19T16:13:03.401Z,22.50
2022-12-19T16:15:31.294Z,23.10
2022-12-19T16:17:59.146Z,23.60
2022-12-19T16:20:27.312Z,24.20
2022-12-19T16:22:55.647Z,24.70
2022-12-19T16:25:23.534Z,25.30
2022-12-19T16:27:51.363Z,25.90
2022-12-19T16:30:19.340Z,25.80
2022-12-19T16:32:47.324Z,24.30
2022-12-19T16:35:17.542Z,22.20
2022-12-19T16:37:51.964Z,20.40
2022-12-19T16:40:19.785Z,18.70
2022-12-19T16:42:47.544Z,17.40
2022-12-19T16:45:15.519Z,16.60
2022-12-19T16:47:43.359Z,16.20
2022-12-19T16:50:11.224Z,16.00
2022-12-19T16:52:42.559Z,16.10
2022-12-19T16:55:10.929Z,16.40
2022-12-19T16:57:38.713Z,16.80
2022-12-19T17:00:06.535Z,17.20
2022-12-19T17:02:34.426Z,17.80
2022-12-19T17:05:02.375Z,18.40
2022-12-19T17:07:30.260Z,19.00
2022-12-19T17:09:58.141Z,19.70
2022-12-19T17:12:25.902Z,20.40
2022-12-19T17:14:53.977Z,21.00
2022-12-19T17:17:22.149Z,21.60
2022-12-19T17:19:49.946Z,22.20
2022-12-19T17:22:17.717Z,22.80
2022-12-19T17:24:47.219Z,23.40
2022-12-19T17:27:22.899Z,23.90
2022-12-19T17:29:50.671Z,24.30
2022-12-19T17:32:23.972Z,24.50
2022-12-19T17:34:52.443Z,24.60
2022-12-19T17:37:20.356Z,24.90
2022-12-19T17:39:49.023Z,25.10
2022-12-19T17:42:17.104Z,25.70
2022-12-19T17:44:45.160Z,26.10
2022-12-19T17:47:13.059Z,26.60
2022-12-19T17:49:40.943Z,27.10
2022-12-19T17:52:08.663Z,27.50
2022-12-19T17:54:36.459Z,27.90
2022-12-19T17:57:04.154Z,28.30
2022-12-19T17:59:31.903Z,28.70
2022-12-19T18:01:59.970Z,29.00
2022-12-19T18:04:27.906Z,29.40
2022-12-19T18:06:55.645Z,29.80
2022-12-19T18:09:23.500Z,26.70
2022-12-19T18:11:51.431Z,22.70
2022-12-19T18:14:19.327Z,20.20
2022-12-19T18:16:47.129Z,18.80
2022-12-19T18:19:15.347Z,17.80
2022-12-19T18:21:43.086Z,17.00
2022-12-19T18:24:11.032Z,16.50
2022-12-19T18:26:38.753Z,15.90
2022-12-19T18:29:06.710Z,15.40
2022-12-19T18:31:36.204Z,15.00
2022-12-19T18:34:07.921Z,15.20
2022-12-19T18:36:36.041Z,14.40
2022-12-19T18:39:03.762Z,14.40
2022-12-19T18:41:31.523Z,14.40
2022-12-19T18:43:59.274Z,14.80
2022-12-19T18:46:27.103Z,15.20
2022-12-19T18:48:55.578Z,15.80
2022-12-19T18:51:23.450Z,16.40
2022-12-19T18:53:51.439Z,16.90
2022-12-19T18:56:19.413Z,17.50
2022-12-19T18:58:47.342Z,18.20
2022-12-19T19:01:15.678Z,18.80
2022-12-19T19:03:43.579Z,19.40
2022-12-19T19:06:11.450Z,20.10
2022-12-19T19:08:39.204Z,20.80
2022-12-19T19:11:07.029Z,21.40
2022-12-19T19:13:34.847Z,22.10
2022-12-19T19:16:02.740Z,23.20
2022-12-19T19:18:30.603Z,23.20
2022-12-19T19:21:01.247Z,23.80
2022-12-19T19:23:29.269Z,24.30
2022-12-19T19:25:57.215Z,24.90
2022-12-19T19:28:24.978Z,25.40
2022-12-19T19:30:52.787Z,25.80
2022-12-19T19:33:20.571Z,26.40
2022-12-19T19:35:48.444Z,26.40
2022-12-19T19:38:16.227Z,26.00
2022-12-19T19:40:43.995Z,25.50
2022-12-19T19:43:11.762Z,24.90
2022-12-19T19:45:43.473Z,24.60
2022-12-19T19:48:11.724Z,24.60
2022-12-19T19:50:39.503Z,24.70
2022-12-19T19:53:07.377Z,24.90
2022-12-19T19:55:35.112Z,25.20
2022-12-19T19:58:02.903Z,25.60
2022-12-19T20:00:30.746Z,25.90
2022-12-19T20:03:01.001Z,26.30
2022-12-19T20:05:32.980Z,26.60
2022-12-19T20:08:00.839Z,27.00
2022-12-19T20:10:28.681Z,27.40
2022-12-19T20:12:56.476Z,27.80
2022-12-19T20:15:24.254Z,28.20
2022-12-19T20:17:53.789Z,28.50
2022-12-19T20:20:21.683Z,29.00
2022-12-19T20:22:49.610Z,29.40
2022-12-19T20:25:18.128Z,29.60
2022-12-19T20:27:46.171Z,29.90
2022-12-19T20:30:13.922Z,30.20
2022-12-19T20:32:41.667Z,30.50
2022-12-19T20:35:14.556Z,30.70
2022-12-19T20:37:42.970Z,31.10
2022-12-19T20:40:10.757Z,31.40
2022-12-19T20:42:38.567Z,31.70
2022-12-19T20:45:06.870Z,31.90
2022-12-19T20:47:34.624Z,32.10
2022-12-19T20:50:02.524Z,32.30
2022-12-19T20:52:30.267Z,32.60
2022-12-19T20:54:57.993Z,32.70
2022-12-19T20:57:25.899Z,32.90
2022-12-19T20:59:56.120Z,33.10
2022-12-19T21:02:24.058Z,33.30
2022-12-19T21:04:51.878Z,33.40
2022-12-19T21:07:19.656Z,33.60
2022-12-19T21:09:49.193Z,33.70
2022-12-19T21:12:16.920Z,33.90
2022-12-19T21:14:44.675Z,34.10
2022-12-19T21:17:13.328Z,34.20
2022-12-19T21:19:41.070Z,34.40
2022-12-19T21:22:08.791Z,34.40
2022-12-19T21:24:36.935Z,34.60
2022-12-19T21:27:04.822Z,34.70
2022-12-19T21:29:32.551Z,34.70
2022-12-19T21:32:00.412Z,34.90
2022-12-19T21:34:28.284Z,34.90
2022-12-19T21:36:55.995Z,35.00
2022-12-19T21:39:25.508Z,35.30
2022-12-19T21:41:53.357Z,35.30
2022-12-19T21:44:21.269Z,35.40
2022-12-19T21:46:49.001Z,35.30
2022-12-19T21:49:16.771Z,35.40
2022-12-19T21:51:46.468Z,35.40
2022-12-19T21:54:14.212Z,35.50
2022-12-19T21:56:42.057Z,35.60
2022-12-19T21:59:09.788Z,35.50
2022-12-19T22:01:37.803Z,35.60
2022-12-19T22:04:06.519Z,35.70
2022-12-19T22:06:34.354Z,35.70
2022-12-19T22:09:02.234Z,35.90
2022-12-19T22:11:30.103Z,36.00
2022-12-19T22:13:57.845Z,35.90
2022-12-19T22:16:25.748Z,35.90
2022-12-19T22:18:54.982Z,35.90
2022-12-19T22:21:22.766Z,35.90
2022-12-19T22:23:50.629Z,35.90
2022-12-19T22:26:21.385Z,35.90
2022-12-19T22:28:49.363Z,36.00
2022-12-19T22:31:17.637Z,36.00
2022-12-19T22:33:45.468Z,36.10
2022-12-19T22:36:15.632Z,36.20
2022-12-19T22:38:44.035Z,36.30
2022-12-19T22:41:11.822Z,36.30
2022-12-19T22:43:40.067Z,36.20
2022-12-19T22:46:07.960Z,36.30
2022-12-19T22:48:36.103Z,36.30
2022-12-19T22:51:03.872Z,36.40
2022-12-19T22:53:34.346Z,36.40
2022-12-19T22:56:06.301Z,36.50
2022-12-19T22:58:35.368Z,36.40
2022-12-19T23:01:03.496Z,36.50
2022-12-19T23:03:31.417Z,36.40
2022-12-19T23:05:59.403Z,36.50
2022-12-19T23:08:27.156Z,36.60
2022-12-19T23:10:54.955Z,36.50
2022-12-19T23:13:22.836Z,36.50
2022-12-19T23:15:50.549Z,36.60
2022-12-19T23:18:18.501Z,36.60
2022-12-19T23:20:46.238Z,36.60
2022-12-19T23:23:16.123Z,36.70
2022-12-19T23:25:44.088Z,36.70
2022-12-19T23:28:11.868Z,36.70
2022-12-19T23:30:39.859Z,36.70
2022-12-19T23:33:07.682Z,36.70
2022-12-19T23:35:35.456Z,36.80
2022-12-19T23:38:03.605Z,36.80
2022-12-19T23:40:31.348Z,36.70
2022-12-19T23:42:59.922Z,36.70
2022-12-19T23:45:27.965Z,36.70
2022-12-19T23:47:55.852Z,36.70
2022-12-19T23:50:23.603Z,36.70
2022-12-19T23:52:51.353Z,36.60
2022-12-19T23:55:19.263Z,36.70
2022-12-19T23:57:47.009Z,36.80
